LiveATC.Net - Listen to live air traffic control over the Internet!


ICAO: SBTE  IATA: THE   Airport: Teresina-Senador Petronio Portella Airport
City: Teresina
Country: Brazil   Continent: South America
SBTE METAR Weather: SBTE 202200Z 03004KT 9999 TS SCT030 FEW033CB BKN080 27/23 Q1009
SBTE Flight Activity (FlightAware)

SBTE Twr/App
Feed Status: UP   Listeners: 0
Listen in your browser - HTML5 player (in browser, HTML5)
Click here to listen with your own player (launches your MP3 player)
SBTE Twr/App Audio Archives
FacilityFrequency
Teresina Approach119.600
Teresina Tower118.800

NOTICE

Unauthorized use prohibited. See LiveATC.net Terms of Service


Find LiveATC Audio Streams


Airport/ARTCC Code

Frequency Search
(e.g., 124.400, 128.75)
Site-wide search
 


Browse LiveATC Feeds
Top 50 LiveATC Feeds
LiveATC Feed Map
Bad Weather Areas

LiveATC FAQ
Offer LiveATC feed
Contact LiveATC.net
Press Inquiries

LiveATC on iPhone
LiveATC on Android

Windows Phone
Windows 8/10

LiveATC Mobile
(Mobile browser)

ATC Audio Archives
Interesting Recordings

LiveATC Forums


Home Page
About LiveATC.net
Make a Donation
Terms of Use
Privacy Policy

Canadian Air Freqs

AIRMETs/SIGMETs

FAA Airport Status
Nat'l Airspace Status
Arrival Demand Charts


Server Software By:
Icecast.org
Liquidsoap